createdAt,value
2023-10-26T00:01:25.697Z,12.69
2023-10-26T00:04:26.761Z,12.74
2023-10-26T00:07:02.320Z,12.63
2023-10-26T00:09:29.443Z,12.64
2023-10-26T00:11:56.469Z,12.47
2023-10-26T00:14:23.949Z,12.60
2023-10-26T00:16:51.186Z,12.34
2023-10-26T00:19:18.280Z,12.33
2023-10-26T00:21:45.697Z,12.29
2023-10-26T00:24:13.682Z,12.43
2023-10-26T00:26:42.207Z,12.40
2023-10-26T00:29:29.750Z,12.52
2023-10-26T00:32:30.788Z,12.57
2023-10-26T00:35:12.231Z,12.56
2023-10-26T00:37:40.029Z,12.35
2023-10-26T00:40:07.686Z,12.41
2023-10-26T00:42:35.166Z,12.36
2023-10-26T00:45:02.240Z,12.47
2023-10-26T00:47:30.039Z,12.56
2023-10-26T00:49:57.314Z,12.54
2023-10-26T00:52:44.815Z,12.59
2023-10-26T00:55:26.088Z,12.59
2023-10-26T00:57:54.311Z,12.76
2023-10-26T01:00:41.711Z,12.78
2023-10-26T01:03:41.886Z,12.87
2023-10-26T01:06:10.018Z,12.91
2023-10-26T01:08:37.224Z,12.73
2023-10-26T01:11:04.928Z,12.79
2023-10-26T01:13:33.156Z,12.90
2023-10-26T01:16:00.784Z,12.94
2023-10-26T01:18:27.909Z,13.05
2023-10-26T01:20:55.892Z,13.03
2023-10-26T01:23:23.129Z,13.05
2023-10-26T01:25:55.811Z,13.04
2023-10-26T01:28:24.836Z,12.91
2023-10-26T01:31:11.761Z,12.99
2023-10-26T01:33:52.407Z,13.05
2023-10-26T01:36:19.462Z,13.09
2023-10-26T01:38:46.548Z,13.16
2023-10-26T01:41:13.472Z,13.15
2023-10-26T01:43:40.450Z,13.08
2023-10-26T01:46:27.792Z,12.97
2023-10-26T01:49:28.802Z,12.95
2023-10-26T01:52:29.738Z,13.01
2023-10-26T01:55:19.105Z,13.07
2023-10-26T01:57:46.205Z,13.07
2023-10-26T02:00:26.865Z,13.06
2023-10-26T02:03:27.958Z,13.08
2023-10-26T02:06:07.319Z,13.08
2023-10-26T02:08:34.679Z,13.13
2023-10-26T02:11:01.613Z,13.00
2023-10-26T02:13:28.857Z,13.00
2023-10-26T02:15:55.900Z,12.95
2023-10-26T02:18:23.013Z,12.98
2023-10-26T02:20:50.362Z,13.03
2023-10-26T02:23:37.819Z,13.07
2023-10-26T02:26:18.948Z,13.02
2023-10-26T02:29:05.764Z,12.93
2023-10-26T02:32:07.137Z,12.92
2023-10-26T02:35:07.968Z,12.90
2023-10-26T02:37:49.522Z,13.03
2023-10-26T02:40:16.501Z,13.05
2023-10-26T02:42:43.618Z,13.15
2023-10-26T02:45:10.914Z,13.06
2023-10-26T02:47:39.242Z,13.15
2023-10-26T02:50:07.685Z,12.97
2023-10-26T02:52:54.762Z,13.02
2023-10-26T02:55:35.418Z,12.91
2023-10-26T02:58:02.610Z,12.98
2023-10-26T03:00:49.876Z,12.84
2023-10-26T03:03:38.900Z,13.01
2023-10-26T03:06:06.472Z,13.07
2023-10-26T03:08:33.577Z,13.07
2023-10-26T03:11:00.715Z,13.00
2023-10-26T03:13:28.033Z,12.94
2023-10-26T03:15:55.452Z,12.81
2023-10-26T03:18:23.030Z,12.68
2023-10-26T03:20:50.177Z,12.73
2023-10-26T03:23:17.552Z,12.67
2023-10-26T03:25:44.592Z,12.71
2023-10-26T03:28:11.685Z,12.69
2023-10-26T03:30:59.016Z,12.73
2023-10-26T03:33:40.830Z,12.67
2023-10-26T03:36:17.790Z,12.78
2023-10-26T03:38:46.188Z,12.93
2023-10-26T03:41:13.989Z,12.95
2023-10-26T03:43:41.279Z,12.97
2023-10-26T03:46:08.848Z,12.94
2023-10-26T03:48:36.783Z,12.99
2023-10-26T03:51:24.301Z,13.04
2023-10-26T03:54:25.116Z,13.00
2023-10-26T03:57:07.464Z,12.89
2023-10-26T03:59:54.933Z,12.94
2023-10-26T04:03:06.320Z,13.03
2023-10-26T04:05:46.772Z,13.07
2023-10-26T04:08:14.105Z,12.99
2023-10-26T04:10:43.598Z,13.00
2023-10-26T04:13:10.900Z,13.07
2023-10-26T04:15:38.003Z,12.91
2023-10-26T04:18:07.397Z,13.01
2023-10-26T04:20:34.950Z,12.82
2023-10-26T04:23:02.136Z,12.88
2023-10-26T04:25:42.106Z,12.86
2023-10-26T04:28:17.546Z,12.79
2023-10-26T04:31:04.882Z,12.77
2023-10-26T04:33:45.543Z,12.81
2023-10-26T04:36:12.734Z,12.75
2023-10-26T04:38:40.537Z,12.79
2023-10-26T04:41:07.637Z,12.78
2023-10-26T04:43:35.150Z,12.87
2023-10-26T04:46:02.328Z,12.98
2023-10-26T04:48:30.229Z,13.05
2023-10-26T04:51:18.003Z,13.08
2023-10-26T04:54:19.017Z,12.96
2023-10-26T04:56:59.465Z,12.93
2023-10-26T04:59:46.879Z,12.79
2023-10-26T05:02:48.290Z,12.84
2023-10-26T05:05:28.484Z,12.84
2023-10-26T05:07:55.665Z,12.82
2023-10-26T05:10:42.875Z,12.82
2023-10-26T05:13:43.986Z,12.66
2023-10-26T05:16:45.099Z,12.71
2023-10-26T05:19:25.552Z,12.78
2023-10-26T05:21:52.790Z,12.80
2023-10-26T05:24:19.723Z,12.94
2023-10-26T05:26:47.139Z,12.85
2023-10-26T05:29:33.916Z,12.95
2023-10-26T05:32:34.961Z,12.75
2023-10-26T05:35:15.796Z,12.68
2023-10-26T05:37:42.898Z,12.73
2023-10-26T05:40:10.503Z,12.82
2023-10-26T05:42:58.318Z,12.87
2023-10-26T05:45:41.379Z,12.84
2023-10-26T05:48:10.973Z,12.79
2023-10-26T05:50:57.876Z,12.83
2023-10-26T05:53:58.877Z,12.83
2023-10-26T05:57:00.363Z,12.92
2023-10-26T06:00:00.923Z,13.04
2023-10-26T06:03:06.014Z,12.83
2023-10-26T06:05:46.460Z,12.73
2023-10-26T06:08:13.590Z,12.81
2023-10-26T06:10:41.426Z,12.88
2023-10-26T06:13:11.960Z,12.69
2023-10-26T06:15:38.962Z,12.78
2023-10-26T06:18:06.225Z,12.81
2023-10-26T06:20:52.917Z,12.77
2023-10-26T06:23:34.627Z,12.78
2023-10-26T06:26:03.238Z,12.87
2023-10-26T06:28:30.541Z,13.01
2023-10-26T06:31:24.970Z,13.07
2023-10-26T06:34:05.561Z,13.16
2023-10-26T06:36:32.623Z,13.12
2023-10-26T06:39:00.902Z,13.08
2023-10-26T06:41:48.129Z,13.05
2023-10-26T06:44:49.978Z,13.26
2023-10-26T06:47:31.185Z,13.31
2023-10-26T06:49:58.109Z,13.23
2023-10-26T06:52:44.940Z,13.39
2023-10-26T06:55:30.734Z,13.48
2023-10-26T06:57:58.535Z,13.37
2023-10-26T07:00:52.107Z,13.48
2023-10-26T07:03:40.907Z,13.51
2023-10-26T07:06:08.206Z,13.44
2023-10-26T07:08:35.566Z,13.42
2023-10-26T07:11:22.953Z,13.70
2023-10-26T07:14:23.945Z,13.78
2023-10-26T07:17:25.025Z,13.75
2023-10-26T07:20:25.957Z,13.97
2023-10-26T07:23:06.504Z,14.05
2023-10-26T07:25:37.184Z,13.89
2023-10-26T07:28:04.446Z,14.10
2023-10-26T07:30:59.126Z,14.39
2023-10-26T07:33:39.596Z,14.05
2023-10-26T07:36:08.170Z,14.00
2023-10-26T07:38:37.825Z,13.83
2023-10-26T07:41:18.442Z,13.72
2023-10-26T07:44:19.719Z,13.66
2023-10-26T07:46:46.629Z,13.62
2023-10-26T07:49:13.627Z,13.80
2023-10-26T07:52:00.973Z,13.99
2023-10-26T07:55:02.111Z,14.02
2023-10-26T07:58:03.063Z,13.97
2023-10-26T08:01:04.130Z,14.00
2023-10-26T08:03:46.007Z,13.96
2023-10-26T08:06:12.945Z,14.00
2023-10-26T08:08:39.978Z,14.00
2023-10-26T08:11:14.914Z,14.08
2023-10-26T08:13:42.320Z,14.21
2023-10-26T08:16:40.716Z,14.54
2023-10-26T08:18:56.438Z,14.90
2023-10-26T08:21:23.441Z,15.30
2023-10-26T08:23:50.852Z,15.16
2023-10-26T08:26:17.703Z,15.24
2023-10-26T08:29:13.708Z,15.04
2023-10-26T08:32:17.161Z,15.43
2023-10-26T08:34:57.656Z,15.07
2023-10-26T08:37:27.064Z,15.20
2023-10-26T08:39:54.854Z,15.22
2023-10-26T08:42:21.909Z,15.29
2023-10-26T08:44:49.779Z,14.87
2023-10-26T08:47:21.219Z,14.82
2023-10-26T08:50:08.172Z,15.12
2023-10-26T08:53:14.089Z,15.44
2023-10-26T08:55:57.892Z,15.52
2023-10-26T08:58:24.988Z,15.34
2023-10-26T09:01:05.848Z,15.22
2023-10-26T09:03:46.911Z,15.20
2023-10-26T09:06:14.091Z,15.39
2023-10-26T09:08:41.103Z,15.72
2023-10-26T09:11:23.788Z,15.42
2023-10-26T09:13:51.591Z,15.38
2023-10-26T09:16:18.677Z,15.19
2023-10-26T09:18:51.348Z,15.32
2023-10-26T09:21:18.829Z,15.62
2023-10-26T09:23:46.595Z,15.80
2023-10-26T09:26:14.662Z,15.27
2023-10-26T09:29:11.012Z,15.43
2023-10-26T09:32:12.139Z,15.55
2023-10-26T09:34:52.617Z,15.36
2023-10-26T09:37:19.626Z,15.19
2023-10-26T09:40:14.727Z,15.26
2023-10-26T09:43:17.024Z,15.23
2023-10-26T09:45:56.729Z,15.29
2023-10-26T09:48:26.300Z,15.29
2023-10-26T09:51:13.091Z,15.39
2023-10-26T09:54:12.171Z,15.05
2023-10-26T09:56:42.231Z,15.29
2023-10-26T09:59:29.222Z,15.40
2023-10-26T10:02:34.082Z,15.19
2023-10-26T10:05:33.235Z,15.02
2023-10-26T10:08:00.231Z,15.04
2023-10-26T10:10:27.224Z,15.02
2023-10-26T10:12:54.571Z,15.08
2023-10-26T10:15:44.420Z,15.23
2023-10-26T10:18:12.216Z,15.25
2023-10-26T10:20:41.938Z,15.25
2023-10-26T10:23:09.955Z,15.18
2023-10-26T10:25:52.408Z,15.23
2023-10-26T10:28:19.975Z,15.17
2023-10-26T10:31:10.058Z,15.51
2023-10-26T10:34:02.105Z,15.31
2023-10-26T10:36:29.348Z,15.40
2023-10-26T10:39:23.910Z,15.48
2023-10-26T10:41:51.958Z,15.91
2023-10-26T10:44:21.392Z,16.19
2023-10-26T10:46:49.509Z,16.27
2023-10-26T10:49:40.412Z,16.34
2023-10-26T10:52:41.250Z,16.36
2023-10-26T10:55:38.732Z,16.55
2023-10-26T10:58:06.136Z,16.26
2023-10-26T11:01:01.213Z,15.90
2023-10-26T11:03:42.497Z,15.98
2023-10-26T11:06:22.453Z,16.21
2023-10-26T11:08:49.440Z,16.65
2023-10-26T11:11:28.390Z,16.94
2023-10-26T11:14:13.517Z,16.50
2023-10-26T11:16:42.998Z,16.29
2023-10-26T11:19:10.133Z,16.54
2023-10-26T11:21:37.234Z,15.93
2023-10-26T11:24:04.911Z,15.94
2023-10-26T11:26:31.904Z,15.85
2023-10-26T11:29:19.297Z,15.61
2023-10-26T11:32:37.116Z,15.34
2023-10-26T11:35:17.771Z,15.49
2023-10-26T11:37:56.694Z,15.66
2023-10-26T11:40:31.903Z,15.41
2023-10-26T11:43:06.713Z,15.38
2023-10-26T11:46:03.347Z,15.49
2023-10-26T11:49:07.152Z,15.61
2023-10-26T11:52:08.457Z,15.93
2023-10-26T11:55:09.102Z,16.19
2023-10-26T11:58:10.151Z,16.18
2023-10-26T12:01:11.127Z,15.93
2023-10-26T12:04:12.122Z,16.17
2023-10-26T12:07:13.513Z,16.11
2023-10-26T12:09:54.020Z,16.17
2023-10-26T12:12:21.123Z,16.61
2023-10-26T12:14:48.947Z,16.34
2023-10-26T12:17:16.120Z,16.29
2023-10-26T12:19:43.303Z,16.62
2023-10-26T12:22:10.663Z,16.71
2023-10-26T12:24:37.706Z,16.64
2023-10-26T12:27:04.972Z,16.60
2023-10-26T12:29:52.157Z,16.56
2023-10-26T12:32:53.189Z,16.42
2023-10-26T12:35:29.396Z,16.79
2023-10-26T12:37:56.515Z,16.97
2023-10-26T12:40:23.618Z,17.22
2023-10-26T12:42:58.935Z,17.24
2023-10-26T12:45:46.193Z,16.92
2023-10-26T12:48:47.163Z,16.92
2023-10-26T12:51:48.269Z,17.07
2023-10-26T12:54:49.194Z,17.47
2023-10-26T12:57:51.188Z,17.71
2023-10-26T13:00:53.263Z,17.88
2023-10-26T13:03:56.598Z,18.17
2023-10-26T13:06:59.327Z,18.24
2023-10-26T13:09:42.515Z,17.80
2023-10-26T13:12:10.536Z,18.26
2023-10-26T13:14:38.284Z,18.57
2023-10-26T13:17:06.423Z,18.10
2023-10-26T13:19:33.568Z,18.42
2023-10-26T13:22:00.972Z,18.38
2023-10-26T13:24:28.415Z,18.60
2023-10-26T13:26:55.595Z,18.76
2023-10-26T13:29:51.245Z,18.83
2023-10-26T13:32:52.229Z,18.81
2023-10-26T13:35:31.408Z,18.59
2023-10-26T13:37:58.505Z,18.47
2023-10-26T13:40:25.936Z,18.40
2023-10-26T13:42:53.197Z,18.37
2023-10-26T13:45:20.461Z,18.71
2023-10-26T13:48:08.183Z,18.63
2023-10-26T13:51:02.310Z,18.62
2023-10-26T13:53:57.183Z,18.62
2023-10-26T13:56:58.178Z,18.75
2023-10-26T13:59:59.167Z,18.76
2023-10-26T14:03:06.288Z,18.71
2023-10-26T14:05:51.290Z,18.67
2023-10-26T14:08:18.812Z,18.63
2023-10-26T14:10:58.538Z,18.65
2023-10-26T14:13:25.455Z,18.43
2023-10-26T14:15:52.505Z,18.48
2023-10-26T14:18:19.779Z,18.56
2023-10-26T14:20:46.788Z,18.63
2023-10-26T14:23:13.788Z,17.85
2023-10-26T14:25:42.919Z,17.68
2023-10-26T14:28:10.088Z,17.72
2023-10-26T14:30:57.274Z,17.72
2023-10-26T14:33:37.901Z,17.74
2023-10-26T14:36:07.214Z,17.80
2023-10-26T14:38:34.519Z,17.79
2023-10-26T14:41:02.170Z,17.62
2023-10-26T14:43:29.633Z,17.59
2023-10-26T14:45:56.797Z,17.57
2023-10-26T14:48:44.321Z,17.39
2023-10-26T14:51:45.232Z,17.27
2023-10-26T14:54:25.835Z,17.15
2023-10-26T14:57:13.606Z,17.06
2023-10-26T15:00:15.234Z,16.73
2023-10-26T15:03:16.238Z,16.90
2023-10-26T15:06:17.220Z,16.87
2023-10-26T15:10:20.669Z,16.75
2023-10-26T15:12:31.175Z,16.54
2023-10-26T15:14:58.875Z,16.73
2023-10-26T15:17:26.751Z,16.46
2023-10-26T15:19:54.385Z,16.32
2023-10-26T15:22:21.430Z,16.24
2023-10-26T15:24:48.878Z,16.40
2023-10-26T15:27:15.994Z,16.36
2023-10-26T15:30:03.297Z,16.41
2023-10-26T15:33:04.265Z,16.30
2023-10-26T15:35:32.099Z,16.14
2023-10-26T15:37:59.111Z,16.04
2023-10-26T15:40:30.174Z,16.29
2023-10-26T15:42:57.192Z,16.35
2023-10-26T15:45:24.438Z,16.41
2023-10-26T15:47:52.466Z,16.49
2023-10-26T15:50:19.467Z,16.41
2023-10-26T15:52:46.524Z,16.31
2023-10-26T15:55:33.299Z,16.26
2023-10-26T15:58:34.324Z,16.12
2023-10-26T16:01:35.353Z,16.17
2023-10-26T16:04:39.322Z,16.17
2023-10-26T16:07:40.334Z,16.26
2023-10-26T16:10:21.089Z,16.11
2023-10-26T16:12:50.775Z,16.03
2023-10-26T16:15:21.541Z,16.09
2023-10-26T16:17:48.835Z,16.12
2023-10-26T16:20:15.891Z,15.83
2023-10-26T16:22:43.884Z,15.78
2023-10-26T16:25:11.280Z,15.85
2023-10-26T16:27:38.369Z,15.91
2023-10-26T16:30:25.327Z,15.75
2023-10-26T16:33:06.197Z,15.66
2023-10-26T16:35:33.271Z,15.73
2023-10-26T16:38:00.391Z,15.72
2023-10-26T16:40:28.445Z,15.75
2023-10-26T16:42:55.511Z,15.58
2023-10-26T16:45:22.585Z,15.57
2023-10-26T16:47:55.857Z,15.77
2023-10-26T16:50:23.936Z,15.77
2023-10-26T16:52:51.671Z,15.86
2023-10-26T16:55:18.882Z,15.85
2023-10-26T16:57:46.000Z,15.72
2023-10-26T17:00:34.312Z,15.76
2023-10-26T17:03:35.676Z,15.73
2023-10-26T17:06:29.653Z,15.59
2023-10-26T17:09:30.311Z,15.71
2023-10-26T17:12:28.304Z,15.68
2023-10-26T17:15:17.559Z,15.68
2023-10-26T17:18:18.292Z,15.75
2023-10-26T17:20:59.102Z,15.72
2023-10-26T17:23:26.241Z,15.72
2023-10-26T17:25:53.654Z,15.67
2023-10-26T17:28:20.564Z,15.70
2023-10-26T17:31:07.480Z,15.70
2023-10-26T17:34:08.364Z,15.73
2023-10-26T17:36:48.928Z,15.56
2023-10-26T17:39:16.015Z,15.60
2023-10-26T17:41:43.008Z,15.61
2023-10-26T17:44:09.945Z,15.52
2023-10-26T17:46:37.227Z,15.60
2023-10-26T17:49:04.400Z,15.56
2023-10-26T17:51:33.999Z,15.50
2023-10-26T17:54:05.532Z,15.52
2023-10-26T17:56:35.423Z,15.54
2023-10-26T17:59:26.603Z,15.63
2023-10-26T18:02:27.393Z,15.48
2023-10-26T18:05:28.379Z,15.41
2023-10-26T18:08:08.985Z,15.48
2023-10-26T18:10:36.004Z,15.44
2023-10-26T18:13:03.180Z,15.45
2023-10-26T18:15:50.741Z,15.38
2023-10-26T18:18:46.720Z,15.39
2023-10-26T18:21:40.445Z,15.32
2023-10-26T18:24:21.048Z,15.29
2023-10-26T18:26:48.132Z,15.22
2023-10-26T18:29:15.150Z,15.30
2023-10-26T18:31:43.521Z,15.35
2023-10-26T18:34:10.735Z,15.37
2023-10-26T18:36:40.321Z,15.32
2023-10-26T18:39:07.604Z,15.38
2023-10-26T18:41:34.798Z,15.36
2023-10-26T18:44:02.160Z,15.28
2023-10-26T18:46:29.294Z,15.26
2023-10-26T18:48:57.178Z,15.31
2023-10-26T18:51:24.530Z,15.35
2023-10-26T18:53:52.222Z,15.38
2023-10-26T18:56:22.646Z,15.37
2023-10-26T18:59:09.380Z,15.35
2023-10-26T19:02:10.410Z,15.35
2023-10-26T19:05:12.378Z,15.42
2023-10-26T19:07:53.569Z,15.41
2023-10-26T19:10:20.653Z,15.41
2023-10-26T19:12:52.939Z,15.30
2023-10-26T19:15:40.448Z,15.29
2023-10-26T19:18:40.031Z,15.29
2023-10-26T19:21:08.556Z,15.23
2023-10-26T19:23:35.723Z,15.18
2023-10-26T19:26:03.166Z,15.17
2023-10-26T19:28:31.171Z,15.25
2023-10-26T19:31:19.565Z,15.25
2023-10-26T19:34:20.896Z,15.21
2023-10-26T19:37:21.433Z,15.27
2023-10-26T19:40:06.429Z,15.27
2023-10-26T19:42:36.627Z,15.21
2023-10-26T19:45:09.364Z,15.19
2023-10-26T19:47:39.133Z,15.14
2023-10-26T19:50:08.390Z,15.22
2023-10-26T19:52:36.219Z,15.20
2023-10-26T19:55:04.284Z,15.17
2023-10-26T19:57:32.289Z,15.18
2023-10-26T20:00:23.423Z,15.05
2023-10-26T20:03:24.542Z,15.11
2023-10-26T20:06:26.537Z,15.14
2023-10-26T20:09:07.493Z,15.13
2023-10-26T20:11:34.601Z,15.16
2023-10-26T20:14:04.025Z,15.24
2023-10-26T20:16:51.728Z,15.26
2023-10-26T20:19:52.598Z,15.18
2023-10-26T20:22:53.476Z,15.23
2023-10-26T20:25:27.128Z,15.30
2023-10-26T20:27:54.636Z,15.20
2023-10-26T20:30:21.668Z,15.28
2023-10-26T20:32:50.052Z,15.20
2023-10-26T20:35:18.139Z,15.30
2023-10-26T20:37:45.111Z,15.21
2023-10-26T20:40:13.490Z,15.22
2023-10-26T20:42:44.268Z,15.27
2023-10-26T20:45:31.428Z,15.27
2023-10-26T20:48:32.785Z,15.26
2023-10-26T20:51:30.266Z,15.21
2023-10-26T20:53:57.217Z,15.20
2023-10-26T20:56:24.356Z,15.19
2023-10-26T20:59:11.444Z,15.21
2023-10-26T21:02:12.508Z,15.16
2023-10-26T21:05:13.479Z,15.26
2023-10-26T21:07:54.883Z,15.23
2023-10-26T21:10:22.395Z,15.24
2023-10-26T21:12:49.623Z,15.20
2023-10-26T21:15:36.555Z,15.15
2023-10-26T21:18:37.707Z,15.18
2023-10-26T21:21:08.229Z,15.21
2023-10-26T21:23:36.530Z,15.19
2023-10-26T21:26:08.233Z,15.22
2023-10-26T21:28:37.741Z,15.23
2023-10-26T21:31:04.892Z,15.20
2023-10-26T21:33:32.646Z,15.23
2023-10-26T21:35:59.901Z,15.18
2023-10-26T21:38:28.188Z,15.22
2023-10-26T21:40:55.317Z,15.19
2023-10-26T21:43:42.507Z,15.19
2023-10-26T21:46:33.645Z,15.18
2023-10-26T21:49:00.822Z,15.15
2023-10-26T21:51:27.827Z,15.18
2023-10-26T21:53:54.779Z,15.16
2023-10-26T21:56:21.815Z,15.20
2023-10-26T21:58:49.045Z,15.23
2023-10-26T22:01:16.155Z,15.32
2023-10-26T22:03:48.281Z,15.36
2023-10-26T22:06:19.595Z,15.35
2023-10-26T22:08:46.523Z,15.50
2023-10-26T22:11:13.465Z,15.52
2023-10-26T22:13:40.471Z,15.31
2023-10-26T22:16:27.645Z,15.37
2023-10-26T22:19:28.508Z,15.34
2023-10-26T22:22:29.520Z,15.31
2023-10-26T22:25:10.865Z,15.29
2023-10-26T22:27:37.833Z,15.31
2023-10-26T22:30:05.586Z,15.36
2023-10-26T22:32:32.694Z,15.43
2023-10-26T22:34:59.846Z,15.32
2023-10-26T22:37:26.829Z,15.33
2023-10-26T22:39:55.052Z,15.37
2023-10-26T22:42:42.862Z,15.26
2023-10-26T22:45:43.598Z,15.30
2023-10-26T22:48:25.017Z,15.27
2023-10-26T22:50:51.955Z,15.32
2023-10-26T22:53:19.040Z,15.35
2023-10-26T22:55:46.944Z,15.32
2023-10-26T22:58:13.962Z,15.32
2023-10-26T23:01:01.812Z,15.23
2023-10-26T23:04:02.603Z,15.25
2023-10-26T23:07:03.601Z,15.30
2023-10-26T23:09:44.234Z,15.27
2023-10-26T23:12:11.265Z,15.23
2023-10-26T23:14:58.597Z,15.25
2023-10-26T23:17:59.594Z,15.21
2023-10-26T23:20:40.120Z,15.17
2023-10-26T23:23:07.077Z,15.21
2023-10-26T23:25:41.705Z,15.22
2023-10-26T23:28:08.803Z,15.27
2023-10-26T23:30:36.730Z,15.35
2023-10-26T23:33:04.094Z,15.26
2023-10-26T23:35:32.247Z,15.23
2023-10-26T23:37:59.298Z,15.25
2023-10-26T23:40:26.331Z,15.19
2023-10-26T23:43:14.597Z,15.16
2023-10-26T23:46:15.603Z,15.16
2023-10-26T23:48:44.669Z,15.19
2023-10-26T23:51:11.730Z,15.25
2023-10-26T23:53:38.696Z,15.12
2023-10-26T23:56:05.967Z,15.21
2023-10-26T23:58:33.062Z,15.15
